Time;durP1;ratioP1;P1;durP2;ratioP2;P2;SDS_P1;SDS_P2;PMS_P1;PMS_P2;Temp;Humidity;BMP_temperature;BMP_pressure;BME280_temperature;BME280_humidity;BME280_pressure;Samples;Min_cycle;Max_cycle;Signal;HPM_P1;HPM_P2
2022/12/29 08:50:15;;;;;;;6.47;1.60;;;;;;;10.79;63.81;96052.00;2097152;27;20563;-49
2022/12/29 08:51:17;;;;;;;7.35;1.80;;;;;;;11.13;62.79;96033.63;2088194;28;20201;-49
2022/12/29 08:52:25;;;;;;;2.67;1.42;;;;;;;11.47;61.86;96037.75;2086002;28;20201;-49
2022/12/29 08:53:26;;;;;;;4.55;1.90;;;;;;;11.81;61.28;96051.50;2089053;28;20489;-49
2022/12/29 08:54:28;;;;;;;6.22;1.73;;;;;;;11.91;60.34;96059.66;2090901;28;20194;-49
2022/12/29 08:55:29;;;;;;;4.80;1.60;;;;;;;11.97;60.56;96048.81;2084542;28;20227;-49
2022/12/29 08:56:31;;;;;;;4.93;1.75;;;;;;;12.31;59.57;96062.50;2081990;28;20841;-49
2022/12/29 08:57:33;;;;;;;5.88;1.42;;;;;;;12.44;59.34;96053.91;2084149;28;20217;-49
2022/12/29 08:58:34;;;;;;;4.30;1.30;;;;;;;12.76;58.65;96056.28;2084655;28;20766;-49
2022/12/29 08:59:35;;;;;;;5.22;1.27;;;;;;;12.69;58.22;96051.44;2082429;28;20220;-49
2022/12/29 09:00:37;;;;;;;8.63;1.52;;;;;;;12.24;59.18;96054.19;2085256;28;20224;-49
2022/12/29 09:01:40;;;;;;;2.25;1.30;;;;;;;12.20;59.51;96054.44;2089273;28;20271;-49
2022/12/29 09:02:42;;;;;;;2.78;1.60;;;;;;;12.40;59.16;96059.34;2087735;28;20256;-49
2022/12/29 09:03:43;;;;;;;3.83;1.30;;;;;;;12.40;59.53;96053.25;2088555;28;20226;-49
2022/12/29 09:32:56;;;;;;;2.97;1.30;;;;;;;11.84;61.94;96094.94;2118128;27;20581;-49
2022/12/29 09:33:58;;;;;;;2.30;1.30;;;;;;;12.03;61.05;96087.72;2112298;28;20208;-49
2022/12/29 09:34:59;;;;;;;6.65;1.45;;;;;;;12.49;60.39;96094.56;2105139;28;20207;-50
2022/12/29 09:36:02;;;;;;;2.70;1.05;;;;;;;12.69;59.91;96095.13;2095124;28;20198;-49
2022/12/29 09:37:03;;;;;;;5.18;1.50;;;;;;;12.81;59.31;96088.28;2098693;28;20235;-50
2022/12/29 09:38:05;;;;;;;2.78;1.17;;;;;;;12.71;59.37;96093.28;2096954;28;20252;-49
2022/12/29 09:39:07;;;;;;;3.40;1.38;;;;;;;12.79;59.68;96090.16;2098248;28;20234;-49
2022/12/29 09:40:31;;;;;;;9.23;1.42;;;;;;;13.23;58.85;96100.47;2098414;28;20227;-49
2022/12/29 09:41:41;;;;;;;4.50;1.52;;;;;;;13.88;57.99;96095.44;2096388;28;20662;-50
2022/12/29 09:43:16;;;;;;;6.07;1.17;;;;;;;14.13;57.23;96096.41;2094810;28;20196;-50
2022/12/29 09:44:31;;;;;;;2.50;1.10;;;;;;;14.44;55.97;96092.53;2094028;28;20203;-50
2022/12/29 09:45:40;;;;;;;6.80;1.20;;;;;;;15.05;55.01;96091.00;2083919;28;20735;-50
2022/12/29 09:46:47;;;;;;;3.13;1.42;;;;;;;14.84;55.25;96097.69;2088924;28;20231;-50
2022/12/29 09:47:50;;;;;;;4.43;1.38;;;;;;;15.06;54.86;96105.81;2085695;28;20193;-50
2022/12/29 09:49:19;;;;;;;1.58;0.90;;;;;;;14.68;55.13;96090.03;2089809;28;20529;-50
2022/12/29 09:50:30;;;;;;;2.38;1.35;;;;;;;14.06;56.69;96103.88;2080780;28;20251;-49
2022/12/29 09:51:33;;;;;;;4.50;1.30;;;;;;;13.57;58.08;96100.06;2081370;28;20197;-50
2022/12/29 09:52:44;;;;;;;3.05;1.38;;;;;;;13.61;58.19;96092.84;2089030;28;20248;-49
2022/12/29 09:54:18;;;;;;;3.80;1.02;;;;;;;13.17;59.27;96092.16;2087357;28;20193;-49
2022/12/29 09:55:24;;;;;;;3.30;1.20;;;;;;;12.93;60.20;96089.31;2084080;28;20274;-50
2022/12/29 09:56:27;;;;;;;3.10;1.38;;;;;;;12.76;60.63;96092.97;2086187;28;20410;-50
2022/12/29 09:57:40;;;;;;;8.50;1.30;;;;;;;12.73;60.79;96100.09;2082574;28;20640;-50
2022/12/29 09:58:48;;;;;;;2.83;1.02;;;;;;;12.77;61.21;96092.88;2084003;28;20201;-50
2022/12/29 10:09:53;;;;;;;2.92;1.42;;;;;;;12.90;62.79;96112.13;2090242;28;21130;-48
2022/12/29 10:10:59;;;;;;;2.92;1.33;;;;;;;12.86;63.05;96100.16;2088343;28;20231;-48
2022/12/29 10:12:21;;;;;;;4.50;1.25;;;;;;;12.75;62.66;96100.00;2088175;28;20201;-48
2022/12/29 10:13:32;;;;;;;5.03;1.23;;;;;;;12.56;63.00;96095.06;2085838;28;20192;-48
2022/12/29 10:14:37;;;;;;;2.40;1.08;;;;;;;12.44;63.17;96094.00;2090561;28;20228;-47
2022/12/29 10:17:08;;;;;;;8.00;1.58;;;;;;;12.27;63.46;96108.13;2100249;27;20550;-48
2022/12/29 10:19:37;;;;;;;4.63;2.00;;;;;;;12.38;63.64;96110.13;2101418;27;20904;-48
2022/12/29 10:20:54;;;;;;;3.75;1.48;;;;;;;12.37;63.88;96111.03;2087228;28;20219;-48
2022/12/29 10:22:17;;;;;;;2.42;1.23;;;;;;;12.58;63.69;96109.72;2092468;28;20773;-47
2022/12/29 10:33:01;;;;;;;4.35;1.60;;;;;;;11.67;69.61;96107.22;2100742;27;20648;-49
2022/12/29 10:39:04;;;;;;;6.05;1.90;;;;;;;11.27;71.46;96110.34;2082476;28;20913;-49
2022/12/29 10:40:51;;;;;;;3.47;1.65;;;;;;;11.73;72.16;96114.72;2078667;28;20583;-49
2022/12/29 10:42:18;;;;;;;6.22;1.83;;;;;;;12.02;71.43;96129.66;2071379;28;20565;-49
2022/12/29 10:43:26;;;;;;;2.40;1.45;;;;;;;11.95;69.25;96121.31;2073194;28;20211;-49
2022/12/29 10:44:30;;;;;;;3.33;1.27;;;;;;;12.08;68.96;96124.09;2074865;28;20871;-50
2022/12/29 10:45:33;;;;;;;2.42;1.20;;;;;;;12.33;68.11;96107.75;2074293;28;20249;-49
2022/12/29 10:46:37;;;;;;;13.18;1.30;;;;;;;12.42;67.57;96111.59;2072771;28;20701;-49
2022/12/29 10:47:50;;;;;;;5.68;1.42;;;;;;;12.32;66.85;96102.63;2073629;28;20197;-50
2022/12/29 10:48:51;;;;;;;6.35;1.48;;;;;;;12.28;67.34;96104.59;2074618;28;20208;-50
2022/12/29 10:49:53;;;;;;;5.22;1.50;;;;;;;12.32;67.52;96107.88;2074713;28;20229;-49
2022/12/29 10:50:57;;;;;;;3.85;1.60;;;;;;;12.15;67.34;96104.47;2074763;28;20197;-50
2022/12/29 10:52:04;;;;;;;3.47;1.98;;;;;;;12.25;67.14;96108.22;2074211;28;20609;-49
2022/12/29 10:53:05;;;;;;;12.48;2.00;;;;;;;12.36;67.02;96107.56;2070772;28;20571;-50
2022/12/29 10:54:21;;;;;;;5.88;1.70;;;;;;;12.27;66.87;96102.06;2075014;28;20205;-49
2022/12/29 10:55:36;;;;;;;4.70;1.35;;;;;;;12.13;67.05;96092.41;2073845;28;20263;-49
2022/12/29 10:56:45;;;;;;;3.72;1.60;;;;;;;12.30;66.83;96101.88;2075001;28;20244;-50
2022/12/29 10:57:48;;;;;;;2.00;1.45;;;;;;;13.14;64.74;96102.81;2075227;28;20706;-49
2022/12/29 10:58:51;;;;;;;3.17;1.30;;;;;;;13.52;63.22;96105.63;2074890;28;20224;-49
2022/12/29 10:59:52;;;;;;;3.58;1.95;;;;;;;13.68;62.73;96104.63;2073169;28;20668;-49
2022/12/29 11:00:54;;;;;;;5.82;2.00;;;;;;;14.13;61.71;96099.03;2070699;28;20198;-50
2022/12/29 11:02:20;;;;;;;4.22;1.60;;;;;;;14.91;59.67;96110.38;2074305;28;20196;-50
2022/12/29 11:03:46;;;;;;;5.18;2.08;;;;;;;15.30;58.60;96113.72;2074978;28;20202;-50
2022/12/29 11:05:18;;;;;;;3.58;1.30;;;;;;;14.73;58.50;96109.88;2072086;28;20200;-51
2022/12/29 11:06:27;;;;;;;2.25;1.33;;;;;;;14.71;58.87;96104.72;2073974;28;20202;-50
2022/12/29 11:07:30;;;;;;;3.88;1.20;;;;;;;14.45;58.87;96112.59;2074243;28;20232;-51
2022/12/29 11:08:37;;;;;;;2.35;1.25;;;;;;;14.49;58.22;96100.94;2073924;28;20196;-50
2022/12/29 11:09:41;;;;;;;4.05;1.30;;;;;;;14.61;58.49;96095.78;2073543;28;20218;-51
2022/12/29 11:10:46;;;;;;;2.60;1.20;;;;;;;14.64;58.62;96119.19;2073849;28;20714;-50
2022/12/29 11:11:47;;;;;;;1.90;1.20;;;;;;;14.50;58.79;96104.38;2074000;28;20209;-50
2022/12/29 11:12:58;;;;;;;5.55;1.33;;;;;;;14.21;59.61;96105.44;2075721;28;20201;-50
2022/12/29 11:14:12;;;;;;;8.50;1.55;;;;;;;13.61;60.69;96112.06;2074456;28;20285;-50
2022/12/29 11:15:15;;;;;;;2.80;1.30;;;;;;;13.39;61.01;96099.50;2072082;28;20220;-50
2022/12/29 11:16:33;;;;;;;3.85;1.27;;;;;;;13.38;61.65;96111.78;2073247;28;20644;-50
2022/12/29 11:17:59;;;;;;;4.45;1.70;;;;;;;13.30;62.21;96105.31;2070437;28;20235;-49
2022/12/29 11:19:01;;;;;;;4.50;1.60;;;;;;;13.39;62.26;96091.63;2072641;28;20636;-50
2022/12/29 11:20:24;;;;;;;7.45;2.00;;;;;;;13.33;62.15;96111.19;2073814;28;20208;-50
2022/12/29 11:21:40;;;;;;;3.28;1.23;;;;;;;13.05;62.50;96104.22;2073329;28;20503;-50
2022/12/29 11:22:44;;;;;;;2.72;1.08;;;;;;;13.10;62.85;96115.28;2072208;28;20192;-50
2022/12/29 12:05:16;;;;;;;6.97;1.20;;;;;;;11.25;71.15;96100.91;2088948;27;20557;-49
2022/12/29 12:06:21;;;;;;;2.13;1.13;;;;;;;11.62;69.45;96087.47;2079247;28;20195;-49
2022/12/29 12:09:56;;;;;;;2.10;1.00;;;;;;;11.78;68.68;96111.81;2084608;28;20563;-48
2022/12/29 12:24:18;;;;;;;2.38;1.10;;;;;;;11.82;68.30;96104.63;2091290;28;20582;-48
2022/12/29 12:25:31;;;;;;;2.85;0.90;;;;;;;12.03;67.60;96108.66;2087497;28;20222;-48
2022/12/29 12:27:10;;;;;;;2.30;1.10;;;;;;;12.44;67.21;96107.09;2094263;28;20551;-49
2022/12/29 12:28:26;;;;;;;6.43;1.10;;;;;;;12.72;65.92;96108.88;2087300;28;20196;-50
2022/12/29 12:29:45;;;;;;;2.75;1.60;;;;;;;12.78;65.97;96114.69;2084863;28;20203;-50
2022/12/29 12:30:51;;;;;;;102.35;61.85;;;;;;;12.50;66.79;96098.03;2076194;28;20275;-52
2022/12/29 12:31:59;;;;;;;75.63;40.25;;;;;;;12.71;66.29;96111.59;2072268;28;20658;-51
2022/12/29 12:33:13;;;;;;;87.60;45.33;;;;;;;12.98;65.48;96102.97;2076146;28;20205;-51
2022/12/29 12:34:24;;;;;;;35.85;18.23;;;;;;;12.76;65.00;96083.34;2074703;28;20246;-51
2022/12/29 12:35:41;;;;;;;5.68;3.13;;;;;;;12.82;65.47;96093.41;2074728;28;20229;-50
2022/12/29 12:37:18;;;;;;;4.60;1.70;;;;;;;12.75;65.27;96097.38;2074931;28;20201;-51
2022/12/29 12:38:43;;;;;;;2.20;1.20;;;;;;;12.73;64.35;96094.00;2052078;28;20421;-49
2022/12/29 12:40:26;;;;;;;1.60;1.10;;;;;;;12.47;64.24;96092.97;2062254;28;20279;-53
2022/12/29 12:41:49;;;;;;;5.57;1.10;;;;;;;12.67;64.24;96090.00;2060707;28;20328;-49
2022/12/29 12:42:56;;;;;;;1.73;1.30;;;;;;;13.00;63.31;96090.59;2072979;28;20717;-49
2022/12/29 12:44:18;;;;;;;3.45;1.10;;;;;;;13.23;62.76;96082.09;2075457;28;20209;-49
2022/12/29 12:45:34;;;;;;;3.08;1.50;;;;;;;13.52;61.88;96089.03;2081756;28;20224;-49
2022/12/29 12:46:59;;;;;;;2.50;1.10;;;;;;;13.93;60.97;96084.63;2079952;28;20231;-49
2022/12/29 12:48:41;;;;;;;2.63;1.27;;;;;;;14.04;60.07;96087.38;2074888;28;20205;-49
2022/12/29 12:50:02;;;;;;;4.10;1.40;;;;;;;13.75;60.23;96082.31;2076805;28;20196;-50
2022/12/29 12:51:18;;;;;;;2.33;1.20;;;;;;;13.06;61.57;96079.72;2074851;28;20220;-50
2022/12/29 12:52:29;;;;;;;6.07;1.45;;;;;;;13.16;62.41;96074.72;2074585;28;20288;-49
2022/12/29 12:53:44;;;;;;;1.80;0.90;;;;;;;13.43;60.60;96073.91;2072541;28;20198;-49
